Time;durP1;ratioP1;P1;durP2;ratioP2;P2;SDS_P1;SDS_P2;PMS_P1;PMS_P2;Temp;Humidity;BMP_temperature;BMP_pressure;BME280_temperature;BME280_humidity;BME280_pressure;Samples;Min_cycle;Max_cycle;Signal;HPM_P1;HPM_P2
2023/09/09 00:01:29;;;;;;;8.60;7.72;;;18.60;75.60;;;17.93;100.00;96140.72;6117940;23;20013;-64
2023/09/09 00:03:56;;;;;;;10.10;8.10;;;18.70;75.30;;;17.91;100.00;96136.69;6128076;23;20017;-64
2023/09/09 00:06:21;;;;;;;9.93;8.65;;;18.70;75.40;;;17.88;100.00;96142.44;6089091;23;20537;-65
2023/09/09 00:08:47;;;;;;;10.80;8.27;;;18.60;75.40;;;17.86;100.00;96136.56;6088599;23;20030;-63
2023/09/09 00:11:13;;;;;;;10.52;8.70;;;18.60;75.40;;;17.83;100.00;96131.69;6113411;23;20022;-64
2023/09/09 00:13:38;;;;;;;11.35;8.98;;;18.60;75.50;;;17.80;100.00;96134.84;6088609;23;20018;-64
2023/09/09 00:16:05;;;;;;;11.32;8.48;;;18.60;75.50;;;17.78;100.00;96135.06;6113003;23;20038;-64
2023/09/09 00:18:31;;;;;;;9.82;8.57;;;18.50;75.50;;;17.75;100.00;96133.69;6095728;23;20081;-64
2023/09/09 00:20:56;;;;;;;10.77;9.05;;;18.40;75.70;;;17.72;100.00;96133.34;6114793;23;20041;-64
2023/09/09 00:23:22;;;;;;;10.52;9.13;;;18.40;76.00;;;17.70;100.00;96133.59;6113641;23;20062;-64
2023/09/09 00:25:48;;;;;;;10.20;8.98;;;18.50;76.10;;;17.69;100.00;96128.50;6112688;23;20042;-63
2023/09/09 00:28:14;;;;;;;11.40;9.55;;;18.50;75.90;;;17.65;100.00;96128.13;6112573;23;20018;-64
2023/09/09 00:30:40;;;;;;;12.00;9.35;;;18.40;76.10;;;17.63;100.00;96132.84;6088309;23;20046;-63
2023/09/09 00:33:09;;;;;;;11.30;9.07;;;18.40;76.20;;;17.59;100.00;96134.34;6088380;23;20007;-64
2023/09/09 00:35:38;;;;;;;9.98;8.90;;;18.40;76.40;;;17.56;100.00;96134.81;6089325;23;20471;-64
2023/09/09 00:38:08;;;;;;;10.57;9.35;;;18.30;76.60;;;17.54;100.00;96131.59;6111930;23;20049;-65
2023/09/09 00:40:33;;;;;;;11.55;9.40;;;18.30;76.60;;;17.49;100.00;96139.44;6112844;23;20089;-63
2023/09/09 00:42:59;;;;;;;11.95;9.48;;;18.30;76.70;;;17.45;100.00;96133.78;6102702;23;20022;-63
2023/09/09 00:45:26;;;;;;;11.52;9.57;;;18.10;76.80;;;17.40;100.00;96136.31;6142446;23;20014;-64
2023/09/09 00:47:52;;;;;;;10.20;9.27;;;18.10;77.00;;;17.39;100.00;96140.00;6091647;23;20589;-64
2023/09/09 00:50:19;;;;;;;12.20;9.00;;;18.10;77.20;;;17.40;100.00;96140.81;6090572;23;20010;-63
2023/09/09 00:52:46;;;;;;;16.00;10.32;;;18.20;77.00;;;17.37;100.00;96130.66;6112656;23;20029;-63
2023/09/09 00:55:12;;;;;;;14.85;9.68;;;18.20;77.10;;;17.36;100.00;96131.69;6111947;23;20019;-63
2023/09/09 00:57:38;;;;;;;10.10;9.02;;;18.10;77.00;;;17.35;100.00;96130.06;6123519;23;20110;-63
2023/09/09 01:00:09;;;;;;;13.48;9.60;;;18.10;76.90;;;17.34;100.00;96126.59;6113032;23;20034;-63
2023/09/09 01:02:37;;;;;;;10.55;9.00;;;18.10;76.90;;;17.29;100.00;96129.16;6088898;23;19998;-64
2023/09/09 01:05:04;;;;;;;10.68;9.40;;;18.20;76.60;;;17.26;100.00;96128.81;6112261;23;20029;-64
2023/09/09 01:07:45;;;;;;;12.18;8.93;;;18.10;76.80;;;17.24;100.00;96133.53;6088402;23;20018;-64
2023/09/09 01:10:11;;;;;;;11.30;9.73;;;18.10;76.80;;;17.21;100.00;96134.81;6089424;23;20110;-64
2023/09/09 01:12:37;;;;;;;14.38;9.77;;;18.10;76.80;;;17.19;100.00;96133.41;6087998;23;20710;-63
2023/09/09 01:15:05;;;;;;;14.75;9.90;;;18.00;76.50;;;17.15;100.00;96123.22;6087789;23;20101;-63
2023/09/09 01:17:31;;;;;;;13.02;10.20;;;17.90;76.80;;;17.09;100.00;96123.34;6088709;23;20452;-63
2023/09/09 01:20:00;;;;;;;12.02;10.48;;;17.80;76.80;;;17.01;100.00;96126.34;6109862;23;20015;-63
2023/09/09 01:22:26;;;;;;;11.27;10.10;;;17.80;77.10;;;17.00;100.00;96120.22;6088124;23;20037;-62
2023/09/09 01:24:52;;;;;;;13.38;11.18;;;17.80;77.20;;;16.99;100.00;96123.91;6064170;23;20121;-63
2023/09/09 01:27:18;;;;;;;13.80;11.18;;;17.80;77.10;;;16.99;100.00;96121.25;6112351;23;20082;-63
2023/09/09 01:29:43;;;;;;;13.27;10.85;;;17.80;77.10;;;16.96;100.00;96124.34;6113248;23;20066;-64
2023/09/09 01:32:09;;;;;;;15.98;11.70;;;17.70;76.90;;;16.92;100.00;96123.19;6088834;23;20022;-63
2023/09/09 01:34:35;;;;;;;13.30;11.27;;;17.70;76.90;;;16.88;100.00;96127.34;6112511;23;20095;-63
2023/09/09 01:37:00;;;;;;;12.90;11.60;;;17.60;77.00;;;16.80;100.00;96125.03;6112107;23;20046;-63
2023/09/09 01:39:26;;;;;;;16.13;11.63;;;17.60;77.20;;;16.76;100.00;96124.69;6089484;23;20409;-62
2023/09/09 01:41:52;;;;;;;13.60;12.18;;;17.60;77.50;;;16.69;100.00;96118.63;6089367;23;20456;-62
2023/09/09 01:44:18;;;;;;;15.38;12.60;;;17.50;77.70;;;16.66;100.00;96128.88;6117708;23;20009;-62
2023/09/09 01:46:44;;;;;;;15.98;13.20;;;17.40;78.00;;;16.62;100.00;96127.72;6117324;23;20018;-63
2023/09/09 01:49:09;;;;;;;14.98;12.93;;;17.50;78.10;;;16.56;100.00;96123.31;6124587;23;20018;-63
2023/09/09 01:51:35;;;;;;;13.88;12.27;;;17.40;78.30;;;16.49;100.00;96120.72;6109399;23;20041;-63
2023/09/09 01:54:01;;;;;;;16.70;12.52;;;17.30;78.60;;;16.48;100.00;96122.56;6087977;23;20018;-64
2023/09/09 01:56:26;;;;;;;14.15;11.98;;;17.40;78.70;;;16.53;100.00;96125.38;6089137;23;20011;-62
2023/09/09 01:58:52;;;;;;;15.45;11.82;;;17.40;78.50;;;16.54;100.00;96115.56;6089677;23;20752;-64
2023/09/09 02:01:18;;;;;;;14.93;12.70;;;17.40;78.30;;;16.51;100.00;96118.66;6087377;23;20033;-64
2023/09/09 02:03:44;;;;;;;12.32;11.07;;;17.40;78.40;;;16.50;100.00;96120.50;6124063;23;20456;-65
2023/09/09 02:06:10;;;;;;;14.05;11.55;;;17.30;78.70;;;16.48;100.00;96114.59;6113541;23;20018;-64
2023/09/09 02:08:35;;;;;;;15.50;11.30;;;17.40;78.60;;;16.49;100.00;96120.72;6064484;23;20011;-65
2023/09/09 02:11:01;;;;;;;12.80;11.35;;;17.40;78.60;;;16.47;100.00;96120.94;6087529;23;20025;-64
2023/09/09 02:13:27;;;;;;;13.55;12.15;;;17.40;78.60;;;16.48;100.00;96122.56;6065608;23;20091;-63
2023/09/09 02:16:04;;;;;;;12.77;11.48;;;17.40;78.60;;;16.48;100.00;96119.91;6091317;23;20022;-65
2023/09/09 02:18:30;;;;;;;13.70;12.10;;;17.40;78.50;;;16.47;100.00;96118.28;6086364;23;20006;-65
2023/09/09 02:20:59;;;;;;;13.07;11.77;;;17.40;78.40;;;16.45;100.00;96120.38;6113692;23;20017;-64
2023/09/09 02:23:27;;;;;;;14.68;12.20;;;17.40;78.40;;;16.44;100.00;96120.59;6090192;23;20011;-64
2023/09/09 02:25:52;;;;;;;14.80;11.55;;;17.30;78.50;;;16.41;100.00;96116.53;6114106;23;20440;-63
2023/09/09 02:28:18;;;;;;;16.67;12.05;;;17.30;78.80;;;16.40;100.00;96114.94;6113380;23;20037;-64
2023/09/09 02:30:44;;;;;;;13.25;11.35;;;17.20;78.90;;;16.39;100.00;96113.31;6089149;23;20026;-63
2023/09/09 02:33:10;;;;;;;15.88;12.30;;;17.20;78.90;;;16.37;100.00;96110.06;6089580;23;20451;-64
2023/09/09 02:35:43;;;;;;;14.48;12.23;;;17.30;78.70;;;16.36;100.00;96113.75;6089885;23;20427;-63
2023/09/09 02:38:09;;;;;;;13.77;12.43;;;17.30;78.70;;;16.34;100.00;96115.81;6112564;23;20022;-64
2023/09/09 02:40:35;;;;;;;13.10;11.65;;;17.20;78.70;;;16.32;100.00;96115.25;6089473;23;20118;-63
2023/09/09 02:43:00;;;;;;;13.60;12.13;;;17.20;78.80;;;16.30;100.00;96108.53;6089622;23;20085;-63
2023/09/09 02:45:26;;;;;;;14.05;12.65;;;17.10;79.00;;;16.28;100.00;96108.75;6122482;23;20014;-63
2023/09/09 02:47:52;;;;;;;14.80;12.88;;;17.10;79.00;;;16.26;100.00;96113.47;6117029;23;20013;-64
2023/09/09 02:50:18;;;;;;;18.48;12.40;;;17.10;79.20;;;16.25;100.00;96114.50;6091530;23;20019;-64
2023/09/09 02:52:43;;;;;;;14.85;13.18;;;17.10;79.20;;;16.24;100.00;96120.84;6088956;23;20010;-64
2023/09/09 02:55:09;;;;;;;15.45;13.43;;;17.10;79.00;;;16.22;100.00;96120.25;6113633;23;20038;-64
2023/09/09 02:57:35;;;;;;;16.05;13.98;;;17.10;79.00;;;16.19;100.00;96121.53;6113521;23;20007;-62
2023/09/09 03:00:01;;;;;;;14.57;12.80;;;17.10;79.10;;;16.14;100.00;96120.56;6065134;23;20014;-62
2023/09/09 03:02:26;;;;;;;15.15;12.32;;;17.00;79.40;;;16.12;100.00;96118.16;6089717;23;20041;-63
2023/09/09 03:04:52;;;;;;;13.95;12.55;;;17.00;79.50;;;16.09;100.00;96112.47;6139788;23;20049;-62
2023/09/09 03:07:19;;;;;;;13.82;12.27;;;17.00;79.60;;;16.08;100.00;96108.22;6118361;23;20022;-62
2023/09/09 03:09:45;;;;;;;15.55;13.10;;;16.90;79.60;;;16.07;100.00;96106.56;6130653;23;20011;-63
2023/09/09 03:12:11;;;;;;;14.90;12.15;;;17.00;79.30;;;16.06;100.00;96107.59;6065339;23;20027;-62
2023/09/09 03:14:37;;;;;;;14.25;12.68;;;17.00;79.00;;;16.06;100.00;96112.91;6089566;23;20077;-63
2023/09/09 03:17:03;;;;;;;14.55;12.73;;;17.00;78.90;;;16.03;100.00;96108.84;6113333;23;20081;-63
2023/09/09 03:19:28;;;;;;;15.05;13.45;;;16.90;78.80;;;16.03;100.00;96111.50;6132356;23;20021;-62
2023/09/09 03:21:54;;;;;;;14.32;13.00;;;17.00;78.80;;;16.01;100.00;96110.13;6142214;23;20411;-62
2023/09/09 03:24:20;;;;;;;14.93;13.43;;;16.90;78.80;;;15.98;100.00;96110.56;6117684;23;20037;-61
2023/09/09 03:26:46;;;;;;;15.85;12.68;;;17.00;78.70;;;15.97;100.00;96111.59;6118043;23;20029;-62
2023/09/09 03:29:11;;;;;;;14.82;13.20;;;16.90;78.90;;;15.92;100.00;96107.78;6118840;23;20006;-63
2023/09/09 03:31:37;;;;;;;14.32;12.63;;;16.80;79.10;;;15.88;100.00;96111.91;6116760;23;20032;-61
2023/09/09 03:34:03;;;;;;;13.30;11.90;;;16.80;79.40;;;15.88;100.00;96117.22;6142865;23;20459;-63
2023/09/09 03:36:29;;;;;;;13.85;12.45;;;16.80;79.50;;;15.85;100.00;96120.31;6142418;23;20011;-67
2023/09/09 03:38:55;;;;;;;14.63;12.60;;;16.70;79.50;;;15.85;100.00;96112.34;6140829;23;20028;-65
2023/09/09 03:41:20;;;;;;;13.52;11.93;;;16.80;79.40;;;15.83;100.00;96109.09;6117011;23;20080;-64
2023/09/09 03:43:46;;;;;;;14.65;12.55;;;16.70;79.60;;;15.80;100.00;96114.84;6141980;23;20017;-67
2023/09/09 03:46:12;;;;;;;13.02;11.73;;;16.70;79.90;;;15.79;100.00;96118.50;6076398;23;20054;-65
2023/09/09 03:48:38;;;;;;;13.85;12.35;;;16.70;80.10;;;15.79;100.00;96118.50;6113203;23;20015;-63
2023/09/09 03:51:04;;;;;;;15.02;12.20;;;16.70;79.90;;;15.79;100.00;96121.16;6088876;23;20093;-64
2023/09/09 03:53:30;;;;;;;13.50;12.10;;;16.60;79.70;;;15.77;100.00;96120.59;6113380;23;20005;-63
2023/09/09 03:55:55;;;;;;;13.27;11.88;;;16.60;79.70;;;15.74;100.00;96123.69;6139630;23;20400;-63
2023/09/09 03:58:21;;;;;;;13.73;12.32;;;16.60;79.70;;;15.74;100.00;96128.97;6117577;23;20411;-63
2023/09/09 04:00:47;;;;;;;14.40;12.85;;;16.60;79.70;;;15.72;100.00;96117.78;6117397;23;20023;-62
2023/09/09 04:03:13;;;;;;;14.93;12.40;;;16.60;79.60;;;15.71;100.00;96125.97;6136599;23;20021;-65
2023/09/09 04:05:40;;;;;;;14.73;12.60;;;16.60;79.50;;;15.70;100.00;96119.03;6065184;23;20033;-63
2023/09/09 04:08:09;;;;;;;14.13;12.65;;;16.60;79.50;;;15.66;100.00;96121.31;6089018;23;20014;-63
2023/09/09 04:10:35;;;;;;;14.90;12.48;;;16.60;79.40;;;15.63;100.00;96124.44;6088605;23;20045;-64
2023/09/09 04:13:01;;;;;;;14.70;12.13;;;16.60;79.40;;;15.60;100.00;96127.47;6113379;23;20045;-64
2023/09/09 04:15:27;;;;;;;15.32;13.65;;;16.60;79.40;;;15.60;100.00;96119.53;6099164;23;20067;-63
2023/09/09 04:17:53;;;;;;;14.05;12.55;;;16.50;79.40;;;15.57;100.00;96119.94;6116447;23;20041;-63
2023/09/09 04:20:18;;;;;;;14.52;13.02;;;16.50;79.50;;;15.56;100.00;96123.63;6086251;23;20388;-63
2023/09/09 04:22:44;;;;;;;14.70;12.77;;;16.50;79.50;;;15.53;100.00;96124.06;6112619;23;20468;-63
2023/09/09 04:25:10;;;;;;;13.20;11.90;;;16.50;79.40;;;15.48;100.00;96124.72;6113028;23;20468;-63
2023/09/09 04:27:36;;;;;;;14.27;12.55;;;16.50;79.40;;;15.47;100.00;96130.25;6122294;23;20491;-63
2023/09/09 04:30:01;;;;;;;13.13;11.35;;;16.40;79.50;;;15.46;100.00;96139.25;6116450;23;20716;-63
2023/09/09 04:32:31;;;;;;;15.13;10.57;;;16.30;79.40;;;15.42;100.00;96128.25;6112809;23;20478;-63
2023/09/09 04:34:57;;;;;;;11.90;10.35;;;16.30;79.60;;;15.40;100.00;96124.22;6064876;23;20025;-68
2023/09/09 04:37:24;;;;;;;13.73;12.00;;;16.40;79.40;;;15.40;100.00;96132.97;6088043;23;20712;-65
2023/09/09 04:39:50;;;;;;;15.60;13.68;;;16.30;79.40;;;15.37;100.00;96129.94;6087916;23;20018;-64
2023/09/09 04:42:18;;;;;;;14.13;12.68;;;16.30;79.40;;;15.35;100.00;96135.44;6094371;23;20101;-64
2023/09/09 04:44:44;;;;;;;14.77;12.57;;;16.40;79.30;;;15.33;100.00;96138.31;6093992;23;20009;-65
2023/09/09 04:47:10;;;;;;;15.25;13.75;;;16.30;79.40;;;15.32;100.00;96143.84;6088115;23;20053;-66
2023/09/09 04:49:35;;;;;;;12.45;11.15;;;16.30;79.30;;;15.31;100.00;96147.50;6086657;23;20023;-64
2023/09/09 04:52:01;;;;;;;17.33;14.30;;;16.30;79.30;;;15.28;100.00;96143.47;6112074;23;20101;-63
2023/09/09 04:54:27;;;;;;;16.77;13.10;;;16.30;79.40;;;15.28;100.00;96148.75;6089485;23;20088;-65
2023/09/09 04:56:52;;;;;;;13.25;10.85;;;16.30;79.80;;;15.27;100.00;96147.16;6089840;23;20948;-64
2023/09/09 04:59:18;;;;;;;11.32;10.23;;;16.20;79.80;;;15.29;100.00;96146.91;6142326;23;20037;-63
2023/09/09 05:01:44;;;;;;;13.30;11.90;;;16.30;79.90;;;15.26;100.00;96150.81;6092129;23;20017;-64
2023/09/09 05:04:10;;;;;;;13.00;11.65;;;16.30;79.90;;;15.28;100.00;96150.59;6117767;23;20018;-65
2023/09/09 05:06:35;;;;;;;13.27;11.18;;;16.30;80.00;;;15.28;100.00;96147.94;6082083;23;20015;-63
2023/09/09 05:09:01;;;;;;;12.77;11.52;;;16.30;79.90;;;15.28;100.00;96154.06;6040604;23;20022;-65
2023/09/09 05:11:27;;;;;;;15.13;11.82;;;16.40;79.70;;;15.29;100.00;96150.38;6088084;23;20035;-65
2023/09/09 05:13:53;;;;;;;14.75;13.05;;;16.40;79.60;;;15.31;100.00;96148.31;6087643;23;20034;-65
2023/09/09 05:16:18;;;;;;;16.63;13.60;;;16.40;79.60;;;15.32;100.00;96152.59;6087943;23;20018;-65
2023/09/09 05:18:44;;;;;;;15.23;13.45;;;16.40;79.70;;;15.35;100.00;96155.84;6085462;23;20038;-65
2023/09/09 05:21:10;;;;;;;17.40;14.80;;;16.50;79.80;;;15.35;100.00;96153.19;6069159;23;20150;-66
2023/09/09 05:23:36;;;;;;;35.03;30.58;;;16.50;79.90;;;15.36;100.00;96155.63;6141619;23;20014;-64
2023/09/09 05:26:02;;;;;;;22.13;17.52;;;16.50;79.90;;;15.39;100.00;96164.97;6142012;23;20026;-64
2023/09/09 05:28:27;;;;;;;14.38;12.93;;;16.60;79.90;;;15.40;100.00;96156.03;6092591;23;20069;-65
2023/09/09 05:30:53;;;;;;;19.17;17.13;;;16.50;79.70;;;15.40;100.00;96154.19;6117102;23;20053;-64
2023/09/09 05:33:19;;;;;;;12.75;10.95;;;16.50;79.60;;;15.42;100.00;96160.06;6141777;23;20073;-64
2023/09/09 05:35:49;;;;;;;11.15;9.40;;;16.60;79.00;;;15.47;100.00;96162.06;6117783;23;20006;-66
2023/09/09 05:38:14;;;;;;;12.10;10.90;;;16.60;78.60;;;15.48;100.00;96163.69;6116819;23;20010;-63
2023/09/09 05:40:40;;;;;;;9.93;8.63;;;16.70;78.80;;;15.49;100.00;96166.13;6140926;23;20037;-63
2023/09/09 05:43:06;;;;;;;9.05;7.00;;;16.70;78.60;;;15.51;100.00;96164.06;6142205;23;20045;-64
2023/09/09 05:45:32;;;;;;;7.88;7.07;;;16.80;78.60;;;15.55;100.00;96170.53;6092646;23;20069;-65
2023/09/09 05:47:57;;;;;;;8.77;7.88;;;16.80;78.60;;;15.59;100.00;96171.75;6119619;23;20057;-66
2023/09/09 05:50:23;;;;;;;13.30;8.98;;;16.90;78.80;;;15.61;100.00;96168.88;6119816;23;20036;-65
2023/09/09 05:52:49;;;;;;;14.15;10.32;;;16.90;78.70;;;15.66;100.00;96160.28;6120547;23;20073;-64
2023/09/09 05:55:15;;;;;;;10.25;8.50;;;17.00;78.70;;;15.72;100.00;96165.53;6143847;23;20018;-64
2023/09/09 05:57:40;;;;;;;11.05;8.00;;;17.10;78.60;;;15.78;100.00;96164.63;6142833;23;20637;-64
2023/09/09 06:00:07;;;;;;;8.52;7.63;;;17.20;78.40;;;15.86;100.00;96169.69;6094565;23;20017;-64
2023/09/09 06:02:34;;;;;;;9.20;7.60;;;17.30;78.40;;;15.91;100.00;96169.00;6118895;23;20371;-63
2023/09/09 06:05:00;;;;;;;12.63;10.88;;;17.40;78.40;;;15.98;100.00;96176.88;6119145;23;20064;-64
2023/09/09 06:07:26;;;;;;;15.95;14.07;;;17.40;78.40;;;16.05;100.00;96172.31;6094551;23;20018;-64
2023/09/09 06:09:52;;;;;;;17.10;14.80;;;17.50;78.60;;;16.12;100.00;96175.72;6143359;23;20045;-64
2023/09/09 06:12:17;;;;;;;19.38;17.45;;;17.60;78.90;;;16.20;100.00;96167.44;6094110;23;20018;-63
2023/09/09 06:14:43;;;;;;;19.67;17.65;;;17.60;78.90;;;16.27;100.00;96162.88;6142911;23;20009;-64
2023/09/09 06:17:09;;;;;;;21.75;19.35;;;17.80;78.90;;;16.37;100.00;96170.31;6094977;23;20041;-64
2023/09/09 06:19:34;;;;;;;19.88;17.88;;;18.00;78.60;;;16.45;100.00;96170.81;6140655;23;20013;-65
2023/09/09 06:22:00;;;;;;;19.38;17.35;;;18.10;78.30;;;16.57;100.00;96162.09;6093468;23;20018;-65
2023/09/09 06:24:27;;;;;;;20.52;18.42;;;18.30;78.10;;;16.66;100.00;96169.53;6118858;23;20049;-65
2023/09/09 06:26:53;;;;;;;21.95;18.38;;;18.40;77.90;;;16.75;100.00;96175.38;6093816;23;20022;-66
2023/09/09 06:29:19;;;;;;;21.25;18.98;;;18.50;77.90;;;16.82;100.00;96176.09;6120028;23;20431;-64
2023/09/09 06:31:44;;;;;;;20.75;18.65;;;18.50;78.00;;;16.90;100.00;96173.09;6142332;23;20022;-67
2023/09/09 06:34:13;;;;;;;21.45;17.52;;;18.60;78.20;;;16.99;100.00;96186.88;6119230;23;20744;-67
2023/09/09 06:36:39;;;;;;;19.88;17.55;;;18.60;77.90;;;17.07;100.00;96181.22;6142427;23;20498;-66
2023/09/09 06:39:04;;;;;;;17.25;14.00;;;18.80;77.40;;;17.17;100.00;96172.69;6119109;23;20022;-68
2023/09/09 06:41:30;;;;;;;15.57;13.88;;;18.80;76.70;;;17.25;100.00;96181.16;6120613;23;20113;-64
2023/09/09 06:43:56;;;;;;;14.30;12.88;;;18.90;76.60;;;17.34;100.00;96181.63;6143555;23;20014;-67
2023/09/09 06:46:22;;;;;;;15.93;14.23;;;19.00;76.50;;;17.43;100.00;96177.63;6143686;23;20010;-65
2023/09/09 06:48:48;;;;;;;15.52;13.93;;;19.10;76.50;;;17.53;100.00;96182.34;6142326;23;20022;-68
2023/09/09 06:51:13;;;;;;;16.40;13.40;;;19.10;76.20;;;17.60;100.00;96189.16;6142458;23;20089;-67
2023/09/09 06:53:39;;;;;;;15.52;14.00;;;19.20;76.10;;;17.70;100.00;96184.13;6118390;23;20006;-62
2023/09/09 06:56:06;;;;;;;16.08;13.48;;;19.40;76.20;;;17.84;100.00;96189.19;6139322;23;20426;-66
2023/09/09 06:58:32;;;;;;;17.73;15.93;;;19.60;75.90;;;17.97;100.00;96194.28;6140830;23;20022;-66
2023/09/09 07:00:58;;;;;;;17.23;15.43;;;19.80;76.30;;;18.11;100.00;96195.69;6116963;23;20044;-67
2023/09/09 07:03:23;;;;;;;18.73;16.77;;;20.20;75.50;;;18.28;100.00;96199.22;6142406;23;20006;-67
2023/09/09 07:05:49;;;;;;;18.08;16.17;;;20.60;74.60;;;18.45;100.00;96201.16;6141255;23;20002;-66
2023/09/09 07:08:15;;;;;;;16.85;15.18;;;20.80;72.80;;;18.61;100.00;96189.75;6117725;23;20096;-67
2023/09/09 07:10:53;;;;;;;17.10;15.40;;;21.10;72.30;;;18.83;100.00;96205.94;6116815;23;20026;-65
2023/09/09 07:13:21;;;;;;;17.52;14.90;;;21.60;71.00;;;19.03;100.00;96203.66;6117293;23;20021;-64
2023/09/09 07:15:49;;;;;;;16.73;15.00;;;22.20;69.50;;;19.28;100.00;96200.59;6117377;23;20498;-63
2023/09/09 07:18:15;;;;;;;17.13;15.25;;;22.80;67.30;;;19.54;100.00;96204.53;6115060;23;20033;-63
2023/09/09 07:20:46;;;;;;;18.08;16.23;;;23.30;66.10;;;19.86;100.00;96202.88;6139686;23;20416;-66
2023/09/09 07:23:15;;;;;;;19.20;17.20;;;23.80;65.00;;;20.21;100.00;96209.78;6109770;23;20018;-65
2023/09/09 07:25:42;;;;;;;18.58;16.67;;;24.10;63.40;;;20.54;100.00;96202.75;6111216;23;20081;-65
2023/09/09 07:28:09;;;;;;;18.00;16.05;;;24.60;62.20;;;20.90;100.00;96206.63;6128392;23;20438;-67
2023/09/09 07:30:35;;;;;;;17.20;15.18;;;25.10;61.10;;;21.28;100.00;96198.50;6141065;23;20094;-65
2023/09/09 07:33:00;;;;;;;18.38;15.23;;;25.50;59.90;;;21.69;100.00;96193.47;6113733;23;20002;-65
2023/09/09 07:35:26;;;;;;;17.35;15.55;;;25.80;58.60;;;22.14;100.00;96200.22;6112786;23;20002;-64
2023/09/09 07:37:52;;;;;;;19.80;17.80;;;26.30;57.50;;;22.56;99.44;96190.22;6086639;23;20548;-65
2023/09/09 07:40:18;;;;;;;18.17;15.43;;;26.60;56.50;;;23.00;95.72;96187.19;6111990;23;20011;-65
2023/09/09 07:42:43;;;;;;;20.20;18.08;;;27.00;55.10;;;23.42;93.05;96186.97;6085856;23;20006;-64
2023/09/09 07:45:09;;;;;;;19.52;17.45;;;27.30;54.40;;;23.77;90.08;96186.19;6116733;23;20460;-64
2023/09/09 07:47:35;;;;;;;22.20;19.90;;;27.60;53.50;;;24.12;87.03;96187.19;6142406;23;20017;-66
2023/09/09 07:50:01;;;;;;;17.27;15.35;;;28.00;52.50;;;24.46;85.56;96179.34;6090135;23;20022;-65
2023/09/09 07:52:28;;;;;;;16.10;13.68;;;28.10;53.10;;;24.82;84.02;96190.72;6112169;23;20022;-66
2023/09/09 07:54:53;;;;;;;14.30;12.90;;;28.60;52.20;;;25.16;81.47;96185.47;6089653;23;20042;-66
2023/09/09 07:57:19;;;;;;;15.60;13.20;;;28.80;51.30;;;25.44;79.92;96185.81;6119739;23;20532;-66
2023/09/09 07:59:45;;;;;;;15.82;14.23;;;29.10;51.30;;;25.72;79.25;96192.34;6117306;23;20006;-65
2023/09/09 08:02:13;;;;;;;15.75;13.80;;;29.50;50.30;;;25.97;77.53;96194.78;6090333;23;20010;-68
2023/09/09 08:04:38;;;;;;;17.58;15.00;;;29.70;49.80;;;26.15;76.21;96179.78;6088353;23;20021;-67
2023/09/09 08:07:04;;;;;;;15.38;13.80;;;29.90;49.10;;;26.35;75.56;96190.41;6088126;23;20018;-68
2023/09/09 08:09:31;;;;;;;16.30;13.38;;;30.10;49.10;;;26.53;74.41;96186.16;6088459;23;20089;-68
2023/09/09 08:11:56;;;;;;;16.55;12.68;;;30.10;49.10;;;26.66;73.93;96190.81;6087421;23;20018;-65
2023/09/09 08:14:22;;;;;;;14.57;12.93;;;30.40;48.60;;;26.86;73.17;96182.47;6112708;23;20101;-66
2023/09/09 08:16:49;;;;;;;14.63;13.23;;;30.70;47.90;;;27.07;72.30;96187.63;6111156;23;20081;-65
2023/09/09 08:19:15;;;;;;;15.32;13.52;;;30.90;48.10;;;27.26;72.10;96193.81;6085284;23;20026;-65
2023/09/09 08:21:41;;;;;;;14.02;12.35;;;31.10;48.40;;;27.49;70.95;96191.31;6122255;23;20072;-64
2023/09/09 08:24:06;;;;;;;33.30;28.35;;;31.30;47.50;;;27.64;70.90;96185.72;6113242;23;20026;-65
2023/09/09 08:26:32;;;;;;;23.10;20.90;;;31.40;46.90;;;27.83;70.02;96186.44;6089072;23;20228;-65
2023/09/09 08:28:58;;;;;;;13.45;12.00;;;31.50;47.10;;;27.98;69.43;96183.50;6063535;23;20025;-64
2023/09/09 08:31:24;;;;;;;16.17;12.82;;;31.80;46.60;;;28.11;68.25;96183.81;6111907;23;20089;-64
2023/09/09 08:33:49;;;;;;;14.27;12.77;;;31.80;46.00;;;28.27;66.97;96174.34;6087954;23;20055;-64
2023/09/09 08:36:15;;;;;;;14.15;12.75;;;32.00;45.80;;;28.47;67.54;96178.56;6089382;23;20017;-64
2023/09/09 08:38:41;;;;;;;15.15;11.98;;;32.10;46.70;;;28.68;66.83;96188.66;6088718;23;20002;-65
2023/09/09 08:41:43;;;;;;;14.95;11.07;;;32.30;46.20;;;28.92;62.75;96168.69;6112087;23;20766;-63
2023/09/09 08:44:18;;;;;;;13.65;11.32;;;32.50;45.50;;;29.02;63.04;96173.13;6087851;23;20457;-64
2023/09/09 08:46:44;;;;;;;13.15;10.68;;;32.50;45.30;;;29.18;64.50;96183.28;6112135;23;20068;-65
2023/09/09 08:49:14;;;;;;;12.88;10.98;;;32.70;44.90;;;29.33;62.98;96178.63;6142181;23;20701;-65
2023/09/09 08:51:53;;;;;;;12.75;11.40;;;32.70;45.40;;;29.56;61.64;96166.72;6081381;23;20018;-64
2023/09/09 08:54:19;;;;;;;12.27;10.85;;;32.90;45.20;;;29.76;63.77;96185.19;6088703;23;20010;-64
2023/09/09 08:56:45;;;;;;;16.65;12.55;;;33.00;45.90;;;29.99;63.72;96177.84;6087569;23;20429;-64
2023/09/09 08:59:12;;;;;;;13.55;11.93;;;33.10;45.90;;;30.12;62.46;96178.91;6088658;23;20034;-64
2023/09/09 09:01:38;;;;;;;12.88;11.48;;;33.10;44.90;;;30.27;61.59;96173.03;6087995;23;20023;-64
2023/09/09 09:04:04;;;;;;;12.43;10.95;;;33.30;45.30;;;30.44;62.19;96175.84;6104356;23;20069;-64
2023/09/09 09:06:30;;;;;;;12.65;10.75;;;33.40;45.60;;;30.62;61.84;96175.94;6119640;23;20088;-65
2023/09/09 09:08:56;;;;;;;13.55;10.80;;;33.60;44.80;;;30.83;60.98;96178.84;6116969;23;20013;-64
2023/09/09 09:11:22;;;;;;;13.43;9.85;;;33.80;44.60;;;30.99;59.96;96167.19;6142446;23;20448;-63
2023/09/09 09:13:48;;;;;;;13.70;10.65;;;34.00;43.90;;;31.23;59.99;96174.94;6141753;23;20475;-63
2023/09/09 09:16:14;;;;;;;13.05;11.43;;;34.20;43.80;;;31.44;58.71;96161.47;6141716;23;20025;-64
2023/09/09 09:18:40;;;;;;;12.60;10.18;;;34.40;42.90;;;31.61;58.97;96171.56;6113934;23;20025;-64
2023/09/09 09:21:06;;;;;;;11.45;9.90;;;34.50;43.50;;;31.84;58.06;96167.53;6117263;23;20033;-64
2023/09/09 09:23:32;;;;;;;11.35;9.80;;;34.60;43.10;;;32.05;57.15;96164.13;6117855;23;20451;-64
2023/09/09 09:25:58;;;;;;;15.00;10.13;;;34.90;42.50;;;32.28;55.86;96154.63;6141086;23;20056;-65
2023/09/09 09:28:27;;;;;;;12.35;10.48;;;35.10;42.00;;;32.44;53.83;96135.81;6141562;23;20033;-65
2023/09/09 09:30:53;;;;;;;17.17;13.52;;;35.20;41.50;;;32.64;54.50;96147.91;6116017;23;20022;-65
2023/09/09 09:33:24;;;;;;;11.63;10.40;;;35.30;41.20;;;32.86;52.19;96123.91;6141479;23;20486;-65
2023/09/09 09:35:50;;;;;;;11.18;8.73;;;35.60;40.90;;;33.10;53.27;96136.06;6140896;23;20006;-67
2023/09/09 09:38:17;;;;;;;13.73;8.82;;;35.60;41.20;;;33.35;52.93;96134.28;6117058;23;20085;-65
2023/09/09 09:40:44;;;;;;;11.05;8.98;;;36.00;40.90;;;33.57;51.98;96128.47;6118171;23;20029;-64
2023/09/09 09:43:19;;;;;;;10.25;7.82;;;36.10;40.10;;;33.77;49.97;96110.47;6141400;23;20057;-66
2023/09/09 09:45:45;;;;;;;8.30;7.50;;;36.40;40.50;;;33.99;50.57;96118.25;6116748;23;20029;-67
2023/09/09 09:48:12;;;;;;;9.45;8.13;;;36.60;39.40;;;34.15;49.86;96114.84;6092386;23;20034;-65
2023/09/09 09:50:40;;;;;;;10.43;7.95;;;36.70;38.60;;;34.34;49.20;96123.28;6117108;23;20016;-65
2023/09/09 09:53:06;;;;;;;8.65;7.85;;;36.80;39.30;;;34.54;49.03;96110.69;6140015;23;20014;-66
2023/09/09 09:55:36;;;;;;;9.30;7.60;;;37.20;38.40;;;34.79;46.35;96098.56;6117196;23;20020;-64
2023/09/09 09:58:04;;;;;;;10.45;7.63;;;37.60;37.40;;;35.01;46.96;96108.22;6115783;23;20061;-65
2023/09/09 10:00:30;;;;;;;8.20;7.32;;;37.70;37.40;;;35.25;47.46;96121.81;6141491;23;20014;-64